createdAt,value
2017-11-29T00:00:26.407Z,4.90
2017-11-29T00:02:55.402Z,5.00
2017-11-29T00:05:24.823Z,4.80
2017-11-29T00:07:54.330Z,4.90
2017-11-29T00:10:24.086Z,4.90
2017-11-29T00:12:53.863Z,5.00
2017-11-29T00:15:23.598Z,4.80
2017-11-29T00:17:52.622Z,4.80
2017-11-29T00:20:21.609Z,4.50
2017-11-29T00:22:51.391Z,4.90
2017-11-29T00:25:20.415Z,4.90
2017-11-29T00:27:49.880Z,4.90
2017-11-29T00:30:19.625Z,4.80
2017-11-29T00:32:50.734Z,4.80
2017-11-29T00:35:19.800Z,4.80
2017-11-29T00:37:49.716Z,4.70
2017-11-29T00:40:20.937Z,4.70
2017-11-29T00:42:50.049Z,4.60
2017-11-29T00:45:19.843Z,4.70
2017-11-29T00:47:50.493Z,4.70
2017-11-29T00:50:20.426Z,4.80
2017-11-29T00:52:50.193Z,4.80
2017-11-29T00:55:20.378Z,5.10
2017-11-29T00:57:49.735Z,4.80
2017-11-29T01:00:19.762Z,4.70
2017-11-29T01:02:49.499Z,4.70
2017-11-29T01:05:18.864Z,4.80
2017-11-29T01:07:48.680Z,4.80
2017-11-29T01:10:18.461Z,4.70
2017-11-29T01:12:47.852Z,4.70
2017-11-29T01:15:16.973Z,4.70
2017-11-29T01:17:46.002Z,4.70
2017-11-29T01:20:14.974Z,4.70
2017-11-29T01:22:44.742Z,4.70
2017-11-29T01:25:13.847Z,4.80
2017-11-29T01:27:42.838Z,4.80
2017-11-29T01:30:11.826Z,4.80
2017-11-29T01:32:40.818Z,4.80
2017-11-29T01:35:09.854Z,4.90
2017-11-29T01:37:39.605Z,4.90
2017-11-29T01:40:08.760Z,4.80
2017-11-29T01:42:38.536Z,4.80
2017-11-29T01:45:07.562Z,4.70
2017-11-29T01:47:36.574Z,4.60
2017-11-29T01:50:05.597Z,4.50
2017-11-29T01:52:34.725Z,4.40
2017-11-29T01:55:03.719Z,4.50
2017-11-29T01:57:33.577Z,4.40
2017-11-29T02:00:03.384Z,4.30
2017-11-29T02:02:32.896Z,4.40
2017-11-29T02:05:02.742Z,4.40
2017-11-29T02:07:31.747Z,4.40
2017-11-29T02:10:00.713Z,4.40
2017-11-29T02:12:29.752Z,4.20
2017-11-29T02:14:59.484Z,4.30
2017-11-29T02:17:28.512Z,4.30
2017-11-29T02:19:57.528Z,4.40
2017-11-29T02:22:38.510Z,4.50
2017-11-29T02:25:18.605Z,4.50
2017-11-29T02:27:47.595Z,4.50
2017-11-29T02:30:16.821Z,4.50
2017-11-29T02:32:46.629Z,4.40
2017-11-29T02:35:15.925Z,4.40
2017-11-29T02:37:45.474Z,4.30
2017-11-29T02:40:39.921Z,4.30
2017-11-29T02:43:09.721Z,4.30
2017-11-29T02:45:38.859Z,4.40
2017-11-29T02:48:08.731Z,4.40
2017-11-29T02:50:38.666Z,4.40
2017-11-29T02:53:07.688Z,4.50
2017-11-29T02:55:36.696Z,4.60
2017-11-29T02:58:06.872Z,4.50
2017-11-29T03:00:36.635Z,4.60
2017-11-29T03:03:06.163Z,4.60
2017-11-29T03:05:35.429Z,4.50
2017-11-29T03:08:04.824Z,4.50
2017-11-29T03:13:44.655Z,4.50
2017-11-29T03:19:17.128Z,4.60
2017-11-29T03:21:46.410Z,4.60
2017-11-29T03:24:15.793Z,4.50
2017-11-29T03:26:45.064Z,4.40
2017-11-29T03:29:14.859Z,4.40
2017-11-29T03:31:43.902Z,4.30
2017-11-29T03:34:13.620Z,4.40
2017-11-29T03:36:43.759Z,4.50
2017-11-29T03:39:12.786Z,4.60
2017-11-29T03:41:41.736Z,4.60
2017-11-29T03:44:11.164Z,4.60
2017-11-29T03:46:40.446Z,4.80
2017-11-29T03:49:09.430Z,4.60
2017-11-29T03:51:38.433Z,4.60
2017-11-29T03:54:08.173Z,4.60
2017-11-29T03:56:37.976Z,4.50
2017-11-29T03:59:06.941Z,4.70
2017-11-29T04:01:35.968Z,4.70
2017-11-29T04:04:05.029Z,4.50
2017-11-29T04:06:34.790Z,4.40
2017-11-29T04:09:04.554Z,4.40
2017-11-29T04:11:33.542Z,4.30
2017-11-29T04:14:02.915Z,4.30
2017-11-29T04:16:32.696Z,4.20
2017-11-29T04:19:02.050Z,4.10
2017-11-29T04:21:31.835Z,4.10
2017-11-29T04:24:01.629Z,4.10
2017-11-29T04:26:31.191Z,4.00
2017-11-29T04:29:00.635Z,3.90
2017-11-29T04:31:29.654Z,3.90
2017-11-29T04:33:58.683Z,3.80
2017-11-29T04:36:27.661Z,3.70
2017-11-29T04:38:56.727Z,3.70
2017-11-29T04:41:26.592Z,3.60
2017-11-29T04:43:55.759Z,3.70
2017-11-29T04:46:24.755Z,3.80
2017-11-29T04:48:53.738Z,3.80
2017-11-29T04:51:22.711Z,3.90
2017-11-29T04:53:52.764Z,3.90
2017-11-29T04:56:24.863Z,3.90
2017-11-29T04:58:54.658Z,3.90
2017-11-29T05:01:27.941Z,3.90
2017-11-29T05:04:00.866Z,3.90
2017-11-29T05:06:31.459Z,3.90
2017-11-29T05:11:38.393Z,4.20
2017-11-29T05:14:07.909Z,4.20
2017-11-29T05:16:38.471Z,4.10
2017-11-29T05:19:07.918Z,4.10
2017-11-29T05:21:36.909Z,4.20
2017-11-29T05:24:06.788Z,4.10
2017-11-29T05:26:35.799Z,4.20
2017-11-29T05:29:05.569Z,4.10
2017-11-29T05:31:34.513Z,4.00
2017-11-29T05:34:03.502Z,4.10
2017-11-29T05:36:32.527Z,4.10
2017-11-29T05:39:01.958Z,4.10
2017-11-29T05:41:30.931Z,4.20
2017-11-29T05:43:59.966Z,4.20
2017-11-29T05:46:29.747Z,4.30
2017-11-29T05:48:58.851Z,4.30
2017-11-29T05:51:28.287Z,4.10
2017-11-29T05:53:57.668Z,4.10
2017-11-29T05:56:27.508Z,4.20
2017-11-29T05:58:57.303Z,4.20
2017-11-29T06:01:26.301Z,4.10
2017-11-29T06:03:55.293Z,4.20
2017-11-29T06:06:24.738Z,4.20
2017-11-29T06:08:54.177Z,4.20
2017-11-29T06:11:23.201Z,4.10
2017-11-29T06:13:52.944Z,4.20
2017-11-29T06:16:22.743Z,4.20
2017-11-29T06:18:52.484Z,4.20
2017-11-29T06:21:21.589Z,4.10
2017-11-29T06:23:51.477Z,4.20
2017-11-29T06:26:21.530Z,4.10
2017-11-29T06:28:50.517Z,4.00
2017-11-29T06:31:19.528Z,4.00
2017-11-29T06:33:48.587Z,3.90
2017-11-29T06:36:17.576Z,3.90
2017-11-29T06:38:47.084Z,3.90
2017-11-29T06:41:16.491Z,3.80
2017-11-29T06:43:45.486Z,3.70
2017-11-29T06:46:14.589Z,3.70
2017-11-29T06:48:43.620Z,3.60
2017-11-29T06:51:12.666Z,3.60
2017-11-29T06:53:41.804Z,3.60
2017-11-29T06:56:10.804Z,3.50
2017-11-29T06:58:40.308Z,3.60
2017-11-29T07:01:10.204Z,3.70
2017-11-29T07:03:40.017Z,3.60
2017-11-29T07:06:09.745Z,3.50
2017-11-29T07:08:38.785Z,3.50
2017-11-29T07:11:07.822Z,3.50
2017-11-29T07:13:37.921Z,3.50
2017-11-29T07:16:08.096Z,3.50
2017-11-29T07:18:37.844Z,3.60
2017-11-29T07:21:08.608Z,3.60
2017-11-29T07:23:38.903Z,3.50
2017-11-29T07:26:09.315Z,3.60
2017-11-29T07:28:38.702Z,3.70
2017-11-29T07:31:07.699Z,3.70
2017-11-29T07:33:37.479Z,3.60
2017-11-29T07:36:06.624Z,3.60
2017-11-29T07:38:35.597Z,3.50
2017-11-29T07:41:05.620Z,3.50
2017-11-29T07:43:35.259Z,3.40
2017-11-29T07:46:04.711Z,3.30
2017-11-29T07:48:34.451Z,3.40
2017-11-29T07:51:03.444Z,3.40
2017-11-29T07:53:32.470Z,3.30
2017-11-29T07:56:01.463Z,3.30
2017-11-29T07:58:30.898Z,3.20
2017-11-29T08:01:00.634Z,3.10
2017-11-29T08:03:29.642Z,3.20
2017-11-29T08:05:58.602Z,3.20
2017-11-29T08:08:28.496Z,3.10
2017-11-29T08:10:57.470Z,3.10
2017-11-29T08:13:26.467Z,3.10
2017-11-29T08:15:55.481Z,3.00
2017-11-29T08:18:24.450Z,2.90
2017-11-29T08:20:53.433Z,2.90
2017-11-29T08:23:22.426Z,2.80
2017-11-29T08:25:51.432Z,2.80
2017-11-29T08:28:20.853Z,3.00
2017-11-29T08:30:50.603Z,3.10
2017-11-29T08:33:19.634Z,3.10
2017-11-29T08:35:48.618Z,3.10
2017-11-29T08:38:17.857Z,3.00
2017-11-29T08:40:47.586Z,3.00
2017-11-29T08:43:16.675Z,3.00
2017-11-29T08:45:46.462Z,3.10
2017-11-29T08:48:16.467Z,3.20
2017-11-29T08:50:45.521Z,3.30
2017-11-29T08:53:14.945Z,3.50
2017-11-29T08:55:44.397Z,3.40
2017-11-29T08:58:13.847Z,3.40
2017-11-29T09:00:42.835Z,3.50
2017-11-29T09:03:11.989Z,3.60
2017-11-29T09:05:41.801Z,3.60
2017-11-29T09:08:10.785Z,3.60
2017-11-29T09:10:39.773Z,3.40
2017-11-29T09:13:09.547Z,3.60
2017-11-29T09:15:38.914Z,3.60
2017-11-29T09:18:08.694Z,3.60
2017-11-29T09:20:37.756Z,3.60
2017-11-29T09:23:07.639Z,3.80
2017-11-29T09:25:36.890Z,3.70
2017-11-29T09:28:06.676Z,3.60
2017-11-29T09:30:35.773Z,3.80
2017-11-29T09:33:04.844Z,3.80
2017-11-29T09:35:33.931Z,3.60
2017-11-29T09:38:03.790Z,3.60
2017-11-29T09:40:33.632Z,3.70
2017-11-29T09:43:02.693Z,3.70
2017-11-29T09:45:32.647Z,3.50
2017-11-29T09:48:01.615Z,3.50
2017-11-29T09:50:31.394Z,3.40
2017-11-29T09:53:00.369Z,3.60
2017-11-29T09:55:29.368Z,3.70
2017-11-29T09:57:59.536Z,3.70
2017-11-29T10:00:28.531Z,3.70
2017-11-29T10:02:57.553Z,3.70
2017-11-29T10:05:26.616Z,3.60
2017-11-29T10:07:55.595Z,3.80
2017-11-29T10:10:24.594Z,3.70
2017-11-29T10:12:54.369Z,3.70
2017-11-29T10:15:24.157Z,3.80
2017-11-29T10:17:53.948Z,4.00
2017-11-29T10:20:22.965Z,4.00
2017-11-29T10:22:52.804Z,4.10
2017-11-29T10:25:22.652Z,4.00
2017-11-29T10:27:52.040Z,3.90
2017-11-29T10:30:21.766Z,3.90
2017-11-29T10:32:51.577Z,3.90
2017-11-29T10:35:21.371Z,3.80
2017-11-29T10:37:51.001Z,4.00
2017-11-29T10:40:20.747Z,4.00
2017-11-29T10:42:50.566Z,4.00
2017-11-29T10:45:19.676Z,4.00
2017-11-29T10:47:50.355Z,4.00
2017-11-29T10:50:19.813Z,3.90
2017-11-29T10:52:49.570Z,4.20
2017-11-29T10:55:18.590Z,4.40
2017-11-29T10:57:47.974Z,4.60
2017-11-29T11:00:27.728Z,4.60
2017-11-29T11:02:56.773Z,4.60
2017-11-29T11:05:25.814Z,4.60
2017-11-29T11:07:54.775Z,4.60
2017-11-29T11:10:23.766Z,4.60
2017-11-29T11:12:54.777Z,4.80
2017-11-29T11:15:23.767Z,4.80
2017-11-29T11:17:53.952Z,4.60
2017-11-29T11:20:22.926Z,4.40
2017-11-29T11:22:52.688Z,4.10
2017-11-29T11:39:06.504Z,4.50
2017-11-29T11:41:35.528Z,4.30
2017-11-29T11:44:04.513Z,4.20
2017-11-29T11:46:33.594Z,4.00
2017-11-29T11:49:03.319Z,3.80
2017-11-29T11:51:32.714Z,3.90
2017-11-29T11:54:02.661Z,4.00
2017-11-29T11:56:35.007Z,4.00
2017-11-29T11:59:04.400Z,4.10
2017-11-29T12:01:33.833Z,4.30
2017-11-29T12:04:03.203Z,4.30
2017-11-29T12:06:32.845Z,4.30
2017-11-29T12:09:01.911Z,4.30
2017-11-29T12:11:30.951Z,4.40
2017-11-29T12:14:00.763Z,4.30
2017-11-29T12:16:29.811Z,4.30
2017-11-29T12:18:59.541Z,4.30
2017-11-29T12:21:29.326Z,4.40
2017-11-29T12:23:58.335Z,4.40
2017-11-29T12:26:27.406Z,4.50
2017-11-29T12:28:56.379Z,4.50
2017-11-29T12:31:25.833Z,4.20
2017-11-29T12:33:54.853Z,3.80
2017-11-29T12:36:24.594Z,3.80
2017-11-29T12:38:53.633Z,3.90
2017-11-29T12:41:22.613Z,4.00
2017-11-29T12:43:51.595Z,4.20
2017-11-29T12:46:20.610Z,4.40
2017-11-29T12:49:01.655Z,4.40
2017-11-29T12:51:30.740Z,4.50
2017-11-29T12:54:00.549Z,4.40
2017-11-29T12:56:29.522Z,4.30
2017-11-29T12:58:58.545Z,4.30
2017-11-29T13:01:27.535Z,4.20
2017-11-29T13:03:56.507Z,4.10
2017-11-29T13:06:25.630Z,4.10
2017-11-29T13:08:54.751Z,4.20
2017-11-29T13:11:23.755Z,4.20
2017-11-29T13:13:53.620Z,4.30
2017-11-29T13:16:23.155Z,4.30
2017-11-29T13:18:53.654Z,4.20
2017-11-29T13:21:22.679Z,4.10
2017-11-29T13:23:52.390Z,4.10
2017-11-29T13:26:22.141Z,4.10
2017-11-29T13:28:52.256Z,4.20
2017-11-29T13:31:21.804Z,4.20
2017-11-29T13:33:51.550Z,4.20
2017-11-29T13:36:20.946Z,4.10
2017-11-29T13:38:50.448Z,4.10
2017-11-29T13:41:19.465Z,4.20
2017-11-29T13:43:48.445Z,4.20
2017-11-29T13:46:17.505Z,4.30
2017-11-29T13:48:46.611Z,4.20
2017-11-29T13:51:15.776Z,4.20
2017-11-29T13:53:44.754Z,4.30
2017-11-29T13:56:14.540Z,4.10
2017-11-29T13:58:43.542Z,4.10
2017-11-29T14:01:12.594Z,4.20
2017-11-29T14:03:41.596Z,4.10
2017-11-29T14:06:11.362Z,4.20
2017-11-29T14:08:40.386Z,4.30
2017-11-29T14:11:09.447Z,4.30
2017-11-29T14:13:38.455Z,4.30
2017-11-29T14:16:07.708Z,4.40
2017-11-29T14:18:36.716Z,4.40
2017-11-29T14:21:05.907Z,4.40
2017-11-29T14:23:34.925Z,4.40
2017-11-29T14:26:04.522Z,4.50
2017-11-29T14:28:33.504Z,4.40
2017-11-29T14:31:02.507Z,4.40
2017-11-29T14:33:31.503Z,4.50
2017-11-29T14:36:00.541Z,4.60
2017-11-29T14:38:30.407Z,4.50
2017-11-29T14:41:00.247Z,4.50
2017-11-29T14:43:30.084Z,4.40
2017-11-29T14:45:59.097Z,4.50
2017-11-29T14:48:29.885Z,4.30
2017-11-29T14:53:34.135Z,4.30
2017-11-29T14:56:03.501Z,4.20
2017-11-29T14:58:32.494Z,4.20
2017-11-29T15:01:02.057Z,4.10
2017-11-29T15:03:31.074Z,4.00
2017-11-29T15:06:00.509Z,4.00
2017-11-29T15:08:29.530Z,4.10
2017-11-29T15:10:59.312Z,4.10
2017-11-29T15:13:28.333Z,4.10
2017-11-29T15:15:58.122Z,4.10
2017-11-29T15:18:27.153Z,4.10
2017-11-29T15:20:56.926Z,4.20
2017-11-29T15:23:27.426Z,4.20
2017-11-29T15:25:56.531Z,4.20
2017-11-29T15:28:26.092Z,4.20
2017-11-29T15:30:55.378Z,4.20
2017-11-29T15:33:24.386Z,4.20
2017-11-29T15:35:54.290Z,4.20
2017-11-29T15:38:24.126Z,4.20
2017-11-29T15:40:53.603Z,4.20
2017-11-29T15:43:23.509Z,4.10
2017-11-29T15:45:52.922Z,4.20
2017-11-29T15:48:22.667Z,4.30
2017-11-29T15:50:51.684Z,4.20
2017-11-29T15:53:20.723Z,4.30
2017-11-29T15:55:49.813Z,4.30
2017-11-29T15:58:19.826Z,4.20
2017-11-29T16:00:49.548Z,4.20
2017-11-29T16:03:18.566Z,4.00
2017-11-29T16:05:48.676Z,3.70
2017-11-29T16:08:17.744Z,3.70
2017-11-29T16:10:46.779Z,3.80
2017-11-29T16:13:15.765Z,3.80
2017-11-29T16:15:45.581Z,4.00
2017-11-29T16:18:15.001Z,4.00
2017-11-29T16:20:44.921Z,4.10
2017-11-29T16:23:14.720Z,4.10
2017-11-29T16:25:44.481Z,4.10
2017-11-29T16:28:14.240Z,4.20
2017-11-29T16:30:43.202Z,4.20
2017-11-29T16:33:12.225Z,4.10
2017-11-29T16:35:41.219Z,4.00
2017-11-29T16:38:10.994Z,3.90
2017-11-29T16:40:40.425Z,3.90
2017-11-29T16:43:10.220Z,3.90
2017-11-29T16:45:40.347Z,3.90
2017-11-29T16:48:10.796Z,3.90
2017-11-29T16:53:16.184Z,3.90
2017-11-29T16:55:45.581Z,3.80
2017-11-29T16:58:14.600Z,3.80
2017-11-29T17:00:43.795Z,3.80
2017-11-29T17:03:12.826Z,3.90
2017-11-29T17:05:41.844Z,3.80
2017-11-29T17:08:10.839Z,3.80
2017-11-29T17:10:40.573Z,3.70
2017-11-29T17:13:10.046Z,3.80
2017-11-29T17:15:39.476Z,3.90
2017-11-29T17:18:09.053Z,3.90
2017-11-29T17:20:38.925Z,3.80
2017-11-29T17:23:08.042Z,3.80
2017-11-29T17:25:37.466Z,3.70
2017-11-29T17:28:06.462Z,3.70
2017-11-29T17:30:35.537Z,3.60
2017-11-29T17:33:04.550Z,3.60
2017-11-29T17:35:33.508Z,3.60
2017-11-29T17:38:03.656Z,3.70
2017-11-29T17:40:32.668Z,3.80
2017-11-29T17:43:02.455Z,3.70
2017-11-29T17:45:31.493Z,3.70
2017-11-29T17:48:00.884Z,3.80
2017-11-29T17:50:30.645Z,3.80
2017-11-29T17:53:00.187Z,3.90
2017-11-29T17:55:29.622Z,3.90
2017-11-29T17:57:58.755Z,3.90
2017-11-29T18:00:27.758Z,3.80
2017-11-29T18:02:57.549Z,3.90
2017-11-29T18:05:27.136Z,4.00
2017-11-29T18:07:56.412Z,4.10
2017-11-29T18:10:27.248Z,4.00
2017-11-29T18:12:56.574Z,4.00
2017-11-29T18:15:25.873Z,4.00
2017-11-29T18:17:55.682Z,4.00
2017-11-29T18:20:25.007Z,4.00
2017-11-29T18:22:54.777Z,4.00
2017-11-29T18:25:24.557Z,3.90
2017-11-29T18:27:54.650Z,3.90
2017-11-29T18:30:24.073Z,3.80
2017-11-29T18:32:53.840Z,3.70
2017-11-29T18:35:22.843Z,3.60
2017-11-29T18:37:51.913Z,3.50
2017-11-29T18:40:20.904Z,3.60
2017-11-29T18:42:50.717Z,3.60
2017-11-29T18:48:02.486Z,3.70
2017-11-29T18:50:31.610Z,3.60
2017-11-29T18:53:01.477Z,3.60
2017-11-29T18:55:30.623Z,3.60
2017-11-29T18:58:00.440Z,3.60
2017-11-29T19:00:30.052Z,3.50
2017-11-29T19:02:59.143Z,3.40
2017-11-29T19:05:28.963Z,3.40
2017-11-29T19:07:58.771Z,3.60
2017-11-29T19:10:29.350Z,3.50
2017-11-29T19:12:58.897Z,3.50
2017-11-29T19:15:28.041Z,3.50
2017-11-29T19:17:57.891Z,3.60
2017-11-29T19:20:27.796Z,3.60
2017-11-29T19:22:56.793Z,3.60
2017-11-29T19:25:26.209Z,3.60
2017-11-29T19:27:56.147Z,3.60
2017-11-29T19:30:26.064Z,3.50
2017-11-29T19:32:55.616Z,3.60
2017-11-29T19:35:25.830Z,3.60
2017-11-29T19:37:56.406Z,3.70
2017-11-29T19:40:25.459Z,3.80
2017-11-29T19:42:54.993Z,3.80
2017-11-29T19:45:25.007Z,3.80
2017-11-29T19:47:54.123Z,3.90
2017-11-29T19:50:23.262Z,3.90
2017-11-29T19:52:52.333Z,3.80
2017-11-29T19:55:21.375Z,3.90
2017-11-29T19:57:50.407Z,3.80
2017-11-29T20:00:19.448Z,3.80
2017-11-29T20:02:49.278Z,3.70
2017-11-29T20:05:19.144Z,3.70
2017-11-29T20:07:48.572Z,3.60
2017-11-29T20:10:17.760Z,3.60
2017-11-29T20:12:47.604Z,3.60
2017-11-29T20:15:17.580Z,3.70
2017-11-29T20:17:47.405Z,3.70
2017-11-29T20:20:16.543Z,3.70
2017-11-29T20:22:47.208Z,3.60
2017-11-29T20:25:16.663Z,3.60
2017-11-29T20:27:45.670Z,3.60
2017-11-29T20:30:15.471Z,3.60
2017-11-29T20:32:45.454Z,3.60
2017-11-29T20:35:15.364Z,3.60
2017-11-29T20:37:44.906Z,3.60
2017-11-29T20:40:15.587Z,3.60
2017-11-29T20:42:44.739Z,3.60
2017-11-29T20:45:14.630Z,3.60
2017-11-29T20:47:44.602Z,3.60
2017-11-29T20:50:14.185Z,3.50
2017-11-29T20:52:55.486Z,3.60
2017-11-29T20:55:25.932Z,3.60
2017-11-29T20:57:55.070Z,3.50
2017-11-29T21:00:24.952Z,3.50
2017-11-29T21:02:54.765Z,3.50
2017-11-29T21:05:23.945Z,3.50
2017-11-29T21:07:53.725Z,3.60
2017-11-29T21:10:23.209Z,3.60
2017-11-29T21:12:52.707Z,3.60
2017-11-29T21:15:21.825Z,3.60
2017-11-29T21:17:50.852Z,3.50
2017-11-29T21:20:20.632Z,3.40
2017-11-29T21:22:50.455Z,3.40
2017-11-29T21:25:19.875Z,3.40
2017-11-29T21:27:49.869Z,3.60
2017-11-29T21:30:19.294Z,3.50
2017-11-29T21:32:49.253Z,3.60
2017-11-29T21:35:18.387Z,3.70
2017-11-29T21:37:47.908Z,3.70
2017-11-29T21:40:16.926Z,3.70
2017-11-29T21:42:46.704Z,3.80
2017-11-29T21:45:16.579Z,3.80
2017-11-29T21:47:45.562Z,3.70
2017-11-29T21:50:15.362Z,3.70
2017-11-29T21:52:44.761Z,3.80
2017-11-29T21:55:13.814Z,3.80
2017-11-29T21:57:44.277Z,3.80
2017-11-29T22:00:13.332Z,3.80
2017-11-29T22:02:42.767Z,3.70
2017-11-29T22:05:12.203Z,3.70
2017-11-29T22:07:41.639Z,3.60
2017-11-29T22:10:10.700Z,3.70
2017-11-29T22:12:40.540Z,3.80
2017-11-29T22:15:09.995Z,3.70
2017-11-29T22:17:39.538Z,3.80
2017-11-29T22:20:09.313Z,3.80
2017-11-29T22:22:38.758Z,3.70
2017-11-29T22:25:07.813Z,3.80
2017-11-29T22:27:36.851Z,3.70
2017-11-29T22:30:05.959Z,3.80
2017-11-29T22:32:34.948Z,3.70
2017-11-29T22:35:04.757Z,3.60
2017-11-29T22:37:33.894Z,3.60
2017-11-29T22:40:02.917Z,3.70
2017-11-29T22:42:34.349Z,3.70
2017-11-29T22:45:04.207Z,3.70
2017-11-29T22:47:33.176Z,3.80
2017-11-29T22:50:02.210Z,3.80
2017-11-29T22:52:31.654Z,3.90
2017-11-29T22:55:01.073Z,3.80
2017-11-29T22:57:30.085Z,3.80
2017-11-29T22:59:59.154Z,3.80
2017-11-29T23:02:28.574Z,3.70
2017-11-29T23:04:57.997Z,3.70
2017-11-29T23:07:27.763Z,3.80
2017-11-29T23:09:57.167Z,3.70
2017-11-29T23:12:26.932Z,3.70
2017-11-29T23:14:56.742Z,3.80
2017-11-29T23:17:25.713Z,3.80
2017-11-29T23:19:54.716Z,3.90
2017-11-29T23:22:23.750Z,3.80
2017-11-29T23:24:53.505Z,3.80
2017-11-29T23:27:22.514Z,3.90
2017-11-29T23:29:51.541Z,3.80
2017-11-29T23:32:20.525Z,3.60
2017-11-29T23:34:51.045Z,3.50
2017-11-29T23:37:20.424Z,3.40
2017-11-29T23:39:49.466Z,3.50
2017-11-29T23:42:18.429Z,3.60
2017-11-29T23:44:47.849Z,3.70
2017-11-29T23:47:16.858Z,3.70
2017-11-29T23:49:45.857Z,3.60
2017-11-29T23:52:14.836Z,3.60
2017-11-29T23:54:43.849Z,3.60
2017-11-29T23:57:13.605Z,3.60
2017-11-29T23:59:42.605Z,3.60
